Aspinwall, IA

2:25 AM CST on March 06, 2015 (GMT -0600)
Manning, Iowa | Change Station
CLOSE
Current Station
Personal Weather Station
Location: Manning, IA
Elevation: 1332 ft
Nearby Weather Stations

Elev 1332 ft 41.90 °N, 95.06 °W | Updated 9 seconds ago

Overcast
Overcast
22.8 °F
Feels Like 9 °F
N
18.3
Wind Variable Wind from South
Gusts 19.9 mph

Today
High -- | Low -- °F
--% Chance of Precip.
Yesterday
High -- | Low -- °F
Precip. -- in
6:47 AM 6:16 PM
Full, 100% visible
Pressure 30.19 in
Visibility 10.0 miles
Clouds Mostly Cloudy 7500 ft
Overcast 9000 ft
Windchill 9 °F
Dew Point 6 °F
Humidity 48%
Rainfall in
Snow Depth Not available.
UV 0 out of 12
Pollen 1.20 out of 12
Air Quality Not available.
Flu Activity Not available.
METAR KDNS 060815Z AUTO 20013G19KT 10SM BKN075 OVC090 M04/M12 A3019 RMK AO2

More Conditions Fewer Conditions

Pressure 30.19 in
Visibility 10.0 miles
Clouds Mostly Cloudy 7500 ft
Overcast 9000 ft
Windchill 9 °F
Dew Point 6 °F
Humidity 48%
Rainfall in
Snow Depth Not available.
UV 0 out of 12
Pollen 1.20 out of 12
Air Quality Not available.
Flu Activity Not available.
METAR KDNS 060815Z AUTO 20013G19KT 10SM BKN075 OVC090 M04/M12 A3019 RMK AO2

More Conditions Fewer Conditions

10-Day Weather Forecast

Almanac

Astronomy

Mar. 06, 2015 Rise Set
Actual Time
Civil Twilight
Nautical Twilight
Astronomical Twilight
Moon
Length of Visible Light
Length of Day
Tomorrow will be .
, % of the Moon is Illuminated

Today's Extremes

State Highs State Lows

Community

WunderPhotos

Upload Photos

1,803,206 photos uploaded!

WunderBlogs® & News

Nearby

Air Quality

  Air Quality AQ Index Pollutant
Not available.

Snow Depth

Station Depth Elevation

Earthquake Activity

City Distance Mag. Time & Date
Minimum magnitude displayed is 2.5.

Coastal Water Temperatures

Place Temperature

Nearby Weather Stations